Estación de Nogales

Ultimos registro cada 15 minutos 86
Estación Fecha / Hora Temperatura Humedad Lluvia Velocidad Dirección Radiación Presion
86 Nogales 05-09-2026 21:15 9,1 87,2 0 0 260 0,6 984,5
85 Nogales 05-09-2026 21:00 9,5 86,4 0 0 260 0,6 984,5
84 Nogales 05-09-2026 20:45 10,1 85,3 0 0 257 0,6 984,5
83 Nogales 05-09-2026 20:30 10,6 85,4 0 0 246 0,6 984,5
82 Nogales 05-09-2026 20:15 11 83,8 0 0 237 0,6 984,4
81 Nogales 05-09-2026 20:00 11,5 82,2 0 0 237 0,6 984,4
80 Nogales 05-09-2026 19:45 12,1 81,3 0 0 237 0,6 984,3
79 Nogales 05-09-2026 19:30 12,7 78,7 0 0 237 0,6 984,1
78 Nogales 05-09-2026 19:15 13,4 75,6 0 0 237 0,6 984
77 Nogales 05-09-2026 19:00 14,5 71,4 0 0 237 0,6 983,9
76 Nogales 05-09-2026 18:45 15,2 69,9 0 0 225 0,6 983,9
75 Nogales 05-09-2026 18:30 16,6 65,1 0 0,3 206 6,9 983,7
74 Nogales 05-09-2026 18:15 17,9 61,5 0 0,3 213 14,4 983,6
73 Nogales 05-09-2026 18:00 19,3 54,4 0 1,3 211 21,9 983,2
72 Nogales 05-09-2026 17:45 21,1 49,1 0 2 225 133,1 983
71 Nogales 05-09-2026 17:30 21,9 46 0 2,3 232 185,6 982,9
70 Nogales 05-09-2026 17:15 22,1 46,2 0 2,3 232 240,6 982,8
69 Nogales 05-09-2026 17:00 22,5 44,5 0 2 241 295,6 982,7
68 Nogales 05-09-2026 16:45 23 44,6 0 2,3 234 348,1 982,7
67 Nogales 05-09-2026 16:30 23,7 41,5 0 2,7 225 401,9 982,7
66 Nogales 05-09-2026 16:15 23,9 39,8 0 2,7 219 455,6 982,6
65 Nogales 05-09-2026 16:00 24,2 38 0 2,7 233 503,1 982,6
64 Nogales 05-09-2026 15:45 24 37,8 0 2,7 227 550,6 982,5
63 Nogales 05-09-2026 15:30 24,1 35,8 0 2,3 218 598,1 982,5
62 Nogales 05-09-2026 15:15 25,7 29,6 0 1,7 222 635,6 982,4
61 Nogales 05-09-2026 15:00 26,4 24,9 0 1,3 168 681,9 982,5
60 Nogales 05-09-2026 14:45 26,2 24,2 0 1 157 713,1 982,6
59 Nogales 05-09-2026 14:30 26,7 26,4 0 1,3 152 754,4 982,7
58 Nogales 05-09-2026 14:15 26,4 26,4 0 1 175 784,4 982,8
57 Nogales 05-09-2026 14:00 26,4 25,5 0 0,7 187 809,4 983
56 Nogales 05-09-2026 13:45 25,9 23,5 0 0,7 170 833,1 983,2
55 Nogales 05-09-2026 13:30 24,9 25,5 0 0,7 183 849,4 983,3
54 Nogales 05-09-2026 13:15 24,7 26,1 0 1 305 853,1 983,5
53 Nogales 05-09-2026 13:00 23,8 32,1 0 1 194 858,1 983,7
52 Nogales 05-09-2026 12:45 22,6 34,8 0 1 206 860,6 983,9
51 Nogales 05-09-2026 12:30 22,5 33,6 0 0,7 170 858,1 984,1
50 Nogales 05-09-2026 12:15 21,7 36,6 0 0,3 209 850,6 984,4
49 Nogales 05-09-2026 12:00 22 38,9 0 0,7 230 833,1 984,6
48 Nogales 05-09-2026 11:45 20,8 43,7 0 0,3 219 820,6 984,8
47 Nogales 05-09-2026 11:30 20,7 43,5 0 0,3 173 796,9 984,9
46 Nogales 05-09-2026 11:15 20,5 44,3 0 0 175 771,9 985,2
45 Nogales 05-09-2026 11:00 18,7 46,5 0 0 194 744,4 985,3
44 Nogales 05-09-2026 10:45 19,4 46,9 0 0 160 713,1 985,4
43 Nogales 05-09-2026 10:30 18,5 51,5 0 0 291 680,6 985,7
42 Nogales 05-09-2026 10:15 18 51,9 0 0 345 640,6 985,9
41 Nogales 05-09-2026 10:00 17,1 56,7 0 0 350 596,9 986
40 Nogales 05-09-2026 09:45 15,7 65,3 0 0 350 551,9 986,3
39 Nogales 05-09-2026 09:30 15,1 68,5 0 0 351 503,1 986,5
38 Nogales 05-09-2026 09:15 13,2 71,6 0 0 351 454,4 986,6
37 Nogales 05-09-2026 09:00 12,8 72,9 0 0 351 400,6 986,6
36 Nogales 05-09-2026 08:45 11,9 85,4 0 0 350 345,6 986,6
35 Nogales 05-09-2026 08:30 10,3 93,1 0 0 350 293,1 986,7
34 Nogales 05-09-2026 08:15 8,6 96,5 0 0 350 241,9 986,6
33 Nogales 05-09-2026 08:00 6,1 97,3 0,2 0 350 59,4 986,5
32 Nogales 05-09-2026 07:45 3,6 97,3 0 0 350 19,4 986,4
31 Nogales 05-09-2026 07:30 3,5 97,1 0 0 350 13,1 986,4
30 Nogales 05-09-2026 07:15 3,3 97,1 0 0 350 8,1 986,4
29 Nogales 05-09-2026 07:00 3,5 97 0 0 350 3,1 986,4
28 Nogales 05-09-2026 06:45 3,1 96,8 0 0 350 0,6 986,3
27 Nogales 05-09-2026 06:30 3,2 96,7 0 0 350 0,6 986,3
26 Nogales 05-09-2026 06:15 3,9 96,8 0 0 350 0,6 986,3
25 Nogales 05-09-2026 06:00 3,6 96,7 0 0 350 0,6 986,3
24 Nogales 05-09-2026 05:45 3,9 96,8 0 0 350 0,6 986,4
23 Nogales 05-09-2026 05:30 3,7 96,5 0 0 350 0,6 986,3
22 Nogales 05-09-2026 05:15 4,4 96,2 0 0 350 0,6 986,2
21 Nogales 05-09-2026 05:00 4,7 96,5 0 0 350 0,6 986,2
20 Nogales 05-09-2026 04:45 4,5 96,5 0 0 350 0,6 986,3
19 Nogales 05-09-2026 04:30 4,5 96,1 0 0 350 0,6 986,3
18 Nogales 05-09-2026 04:15 4,9 96 0 0,3 341 0,6 986,4
17 Nogales 05-09-2026 04:00 4,4 95,8 0 0 279 0,6 986,4
16 Nogales 05-09-2026 03:45 4,5 95,7 0 0 279 0,6 986,6
15 Nogales 05-09-2026 03:30 5 95,5 0 0 279 0,6 986,7
14 Nogales 05-09-2026 03:15 5 95,5 0 0 279 0,6 986,8
13 Nogales 05-09-2026 03:00 4,9 95,2 0 0 279 0,6 987
12 Nogales 05-09-2026 02:45 4,8 94,9 0 0 279 0,6 987,2
11 Nogales 05-09-2026 02:30 5,1 94,9 0 0 279 0,6 987,3
10 Nogales 05-09-2026 02:15 5,3 94,8 0 0 279 0,6 987,3
9 Nogales 05-09-2026 02:00 5,7 94,9 0 0 279 0,6 987,5
8 Nogales 05-09-2026 01:45 5,7 94,7 0 0 279 0,6 987,4
7 Nogales 05-09-2026 01:30 5,7 94,3 0 0 279 0,6 987,6
6 Nogales 05-09-2026 01:15 5,8 94,1 0 0 279 0,6 987,6
5 Nogales 05-09-2026 01:00 6,3 93,7 0 0 279 0,6 987,7
4 Nogales 05-09-2026 00:45 6,5 93,7 0 0 279 0,6 988
3 Nogales 05-09-2026 00:30 6,6 93,7 0 0 279 0,6 988,1
2 Nogales 05-09-2026 00:15 6,4 93,1 0 0 279 0,6 988,3
1 Nogales 05-09-2026 00:00 6,6 92,9 0 0 279 0,6 988,4